sensor_id;sensor_type;location;lat;lon;timestamp;temperature;humidity
18177;DHT22;9213;50.858;3.964;2023-08-20T00:01:56;23.80;55.50
18177;DHT22;9213;50.858;3.964;2023-08-20T00:04:26;23.80;55.50
18177;DHT22;9213;50.858;3.964;2023-08-20T00:06:53;23.90;55.70
18177;DHT22;9213;50.858;3.964;2023-08-20T00:09:20;23.90;55.60
18177;DHT22;9213;50.858;3.964;2023-08-20T00:11:48;23.90;55.50
18177;DHT22;9213;50.858;3.964;2023-08-20T00:14:16;24.00;55.60
18177;DHT22;9213;50.858;3.964;2023-08-20T00:16:44;24.00;55.50
18177;DHT22;9213;50.858;3.964;2023-08-20T00:19:11;24.00;55.50
18177;DHT22;9213;50.858;3.964;2023-08-20T00:21:41;24.10;55.50
18177;DHT22;9213;50.858;3.964;2023-08-20T00:24:11;24.10;55.40
18177;DHT22;9213;50.858;3.964;2023-08-20T00:26:39;24.10;55.50
18177;DHT22;9213;50.858;3.964;2023-08-20T00:29:07;24.10;55.50
18177;DHT22;9213;50.858;3.964;2023-08-20T00:31:34;24.20;55.50
18177;DHT22;9213;50.858;3.964;2023-08-20T00:34:01;24.20;55.40
18177;DHT22;9213;50.858;3.964;2023-08-20T00:36:28;24.20;55.20
18177;DHT22;9213;50.858;3.964;2023-08-20T00:38:55;24.20;55.20
18177;DHT22;9213;50.858;3.964;2023-08-20T00:41:22;24.10;55.20
18177;DHT22;9213;50.858;3.964;2023-08-20T00:43:49;24.10;55.20
18177;DHT22;9213;50.858;3.964;2023-08-20T00:46:17;24.10;55.50
18177;DHT22;9213;50.858;3.964;2023-08-20T00:48:44;24.10;55.60
18177;DHT22;9213;50.858;3.964;2023-08-20T00:51:11;24.10;55.80
18177;DHT22;9213;50.858;3.964;2023-08-20T00:53:38;24.10;55.80
18177;DHT22;9213;50.858;3.964;2023-08-20T00:56:05;24.10;55.90
18177;DHT22;9213;50.858;3.964;2023-08-20T00:58:32;24.10;55.70
18177;DHT22;9213;50.858;3.964;2023-08-20T01:00:59;24.10;55.80
18177;DHT22;9213;50.858;3.964;2023-08-20T01:03:27;24.10;55.90
18177;DHT22;9213;50.858;3.964;2023-08-20T01:06:01;24.10;56.00
18177;DHT22;9213;50.858;3.964;2023-08-20T01:08:38;24.20;56.10
18177;DHT22;9213;50.858;3.964;2023-08-20T01:11:10;24.20;56.00
18177;DHT22;9213;50.858;3.964;2023-08-20T01:13:39;24.20;56.00
18177;DHT22;9213;50.858;3.964;2023-08-20T01:16:06;24.20;55.90
18177;DHT22;9213;50.858;3.964;2023-08-20T01:18:34;24.20;55.80
18177;DHT22;9213;50.858;3.964;2023-08-20T01:21:04;24.20;55.80
18177;DHT22;9213;50.858;3.964;2023-08-20T01:23:56;24.20;55.90
18177;DHT22;9213;50.858;3.964;2023-08-20T01:29:27;24.10;55.90
18177;DHT22;9213;50.858;3.964;2023-08-20T01:31:54;23.90;56.00
18177;DHT22;9213;50.858;3.964;2023-08-20T01:34:21;23.90;56.40
18177;DHT22;9213;50.858;3.964;2023-08-20T01:36:49;23.80;56.50
18177;DHT22;9213;50.858;3.964;2023-08-20T01:39:16;23.80;56.50
18177;DHT22;9213;50.858;3.964;2023-08-20T01:41:44;23.70;56.60
18177;DHT22;9213;50.858;3.964;2023-08-20T01:44:11;23.70;56.70
18177;DHT22;9213;50.858;3.964;2023-08-20T01:46:39;23.70;56.70
18177;DHT22;9213;50.858;3.964;2023-08-20T01:49:06;23.70;56.70
18177;DHT22;9213;50.858;3.964;2023-08-20T01:51:33;23.70;56.70
18177;DHT22;9213;50.858;3.964;2023-08-20T01:54:02;23.60;56.50
18177;DHT22;9213;50.858;3.964;2023-08-20T01:56:29;23.50;56.60
18177;DHT22;9213;50.858;3.964;2023-08-20T01:58:56;23.50;56.70
18177;DHT22;9213;50.858;3.964;2023-08-20T02:01:22;23.40;56.80
18177;DHT22;9213;50.858;3.964;2023-08-20T02:03:51;23.40;56.90
18177;DHT22;9213;50.858;3.964;2023-08-20T02:06:19;23.30;56.80
18177;DHT22;9213;50.858;3.964;2023-08-20T02:08:46;23.30;56.90
18177;DHT22;9213;50.858;3.964;2023-08-20T02:11:13;23.20;57.00
18177;DHT22;9213;50.858;3.964;2023-08-20T02:13:40;23.20;57.00
18177;DHT22;9213;50.858;3.964;2023-08-20T02:16:07;23.10;57.20
18177;DHT22;9213;50.858;3.964;2023-08-20T02:18:34;23.10;57.20
18177;DHT22;9213;50.858;3.964;2023-08-20T02:21:02;23.00;57.40
18177;DHT22;9213;50.858;3.964;2023-08-20T02:23:29;22.90;57.20
18177;DHT22;9213;50.858;3.964;2023-08-20T02:25:56;22.90;57.20
18177;DHT22;9213;50.858;3.964;2023-08-20T02:28:23;22.90;57.10
18177;DHT22;9213;50.858;3.964;2023-08-20T02:30:50;22.90;57.10
18177;DHT22;9213;50.858;3.964;2023-08-20T02:33:17;22.80;57.20
18177;DHT22;9213;50.858;3.964;2023-08-20T02:35:44;22.70;57.40
18177;DHT22;9213;50.858;3.964;2023-08-20T02:38:12;22.70;57.40
18177;DHT22;9213;50.858;3.964;2023-08-20T02:40:41;22.70;57.60
18177;DHT22;9213;50.858;3.964;2023-08-20T02:43:08;22.60;57.50
18177;DHT22;9213;50.858;3.964;2023-08-20T02:45:40;22.60;57.60
18177;DHT22;9213;50.858;3.964;2023-08-20T02:48:07;22.60;57.70
18177;DHT22;9213;50.858;3.964;2023-08-20T02:50:34;22.60;57.70
18177;DHT22;9213;50.858;3.964;2023-08-20T02:53:01;22.70;58.00
18177;DHT22;9213;50.858;3.964;2023-08-20T02:55:30;22.70;58.00
18177;DHT22;9213;50.858;3.964;2023-08-20T02:57:57;22.80;58.00
18177;DHT22;9213;50.858;3.964;2023-08-20T03:00:24;22.80;58.10
18177;DHT22;9213;50.858;3.964;2023-08-20T03:02:51;22.80;58.00
18177;DHT22;9213;50.858;3.964;2023-08-20T03:05:18;22.80;58.00
18177;DHT22;9213;50.858;3.964;2023-08-20T03:07:45;22.90;58.00
18177;DHT22;9213;50.858;3.964;2023-08-20T03:10:12;22.90;57.90
18177;DHT22;9213;50.858;3.964;2023-08-20T03:12:40;22.80;57.70
18177;DHT22;9213;50.858;3.964;2023-08-20T03:15:08;22.90;58.00
18177;DHT22;9213;50.858;3.964;2023-08-20T03:17:35;22.80;58.00
18177;DHT22;9213;50.858;3.964;2023-08-20T03:20:02;22.80;58.20
18177;DHT22;9213;50.858;3.964;2023-08-20T03:22:31;22.80;58.30
18177;DHT22;9213;50.858;3.964;2023-08-20T03:24:58;22.80;58.30
18177;DHT22;9213;50.858;3.964;2023-08-20T03:27:25;22.80;58.40
18177;DHT22;9213;50.858;3.964;2023-08-20T03:29:54;22.80;58.30
18177;DHT22;9213;50.858;3.964;2023-08-20T03:32:20;22.80;58.30
18177;DHT22;9213;50.858;3.964;2023-08-20T03:34:47;22.80;58.40
18177;DHT22;9213;50.858;3.964;2023-08-20T03:37:14;22.80;58.60
18177;DHT22;9213;50.858;3.964;2023-08-20T03:39:41;22.80;58.60
18177;DHT22;9213;50.858;3.964;2023-08-20T03:42:08;22.80;58.70
18177;DHT22;9213;50.858;3.964;2023-08-20T03:44:35;22.80;58.60
18177;DHT22;9213;50.858;3.964;2023-08-20T03:47:03;22.80;58.50
18177;DHT22;9213;50.858;3.964;2023-08-20T03:49:30;22.80;58.50
18177;DHT22;9213;50.858;3.964;2023-08-20T03:51:57;22.70;58.40
18177;DHT22;9213;50.858;3.964;2023-08-20T03:54:24;22.70;58.40
18177;DHT22;9213;50.858;3.964;2023-08-20T03:56:51;22.60;58.30
18177;DHT22;9213;50.858;3.964;2023-08-20T03:59:18;22.60;58.30
18177;DHT22;9213;50.858;3.964;2023-08-20T04:01:45;22.60;58.30
18177;DHT22;9213;50.858;3.964;2023-08-20T04:04:13;22.50;58.30
18177;DHT22;9213;50.858;3.964;2023-08-20T04:06:40;22.50;58.40
18177;DHT22;9213;50.858;3.964;2023-08-20T04:09:07;22.40;58.30
18177;DHT22;9213;50.858;3.964;2023-08-20T04:11:34;22.40;58.50
18177;DHT22;9213;50.858;3.964;2023-08-20T04:14:01;22.30;58.60
18177;DHT22;9213;50.858;3.964;2023-08-20T04:16:29;22.30;58.70
18177;DHT22;9213;50.858;3.964;2023-08-20T04:18:56;22.30;58.70
18177;DHT22;9213;50.858;3.964;2023-08-20T04:21:24;22.20;58.60
18177;DHT22;9213;50.858;3.964;2023-08-20T04:23:51;22.20;58.70
18177;DHT22;9213;50.858;3.964;2023-08-20T04:26:18;22.20;58.60
18177;DHT22;9213;50.858;3.964;2023-08-20T04:28:45;22.20;58.50
18177;DHT22;9213;50.858;3.964;2023-08-20T04:31:12;22.20;58.40
18177;DHT22;9213;50.858;3.964;2023-08-20T04:33:39;22.10;58.70
18177;DHT22;9213;50.858;3.964;2023-08-20T04:36:06;22.10;58.70
18177;DHT22;9213;50.858;3.964;2023-08-20T04:38:34;22.10;58.60
18177;DHT22;9213;50.858;3.964;2023-08-20T04:41:01;22.10;58.70
18177;DHT22;9213;50.858;3.964;2023-08-20T04:43:28;22.00;58.70
18177;DHT22;9213;50.858;3.964;2023-08-20T04:45:55;22.00;59.50
18177;DHT22;9213;50.858;3.964;2023-08-20T04:48:21;22.00;58.80
18177;DHT22;9213;50.858;3.964;2023-08-20T04:50:48;21.90;58.90
18177;DHT22;9213;50.858;3.964;2023-08-20T04:53:15;21.90;58.90
18177;DHT22;9213;50.858;3.964;2023-08-20T04:55:44;21.90;58.80
18177;DHT22;9213;50.858;3.964;2023-08-20T04:58:10;21.90;58.80
18177;DHT22;9213;50.858;3.964;2023-08-20T05:00:37;21.90;58.70
18177;DHT22;9213;50.858;3.964;2023-08-20T05:03:05;21.90;58.50
18177;DHT22;9213;50.858;3.964;2023-08-20T05:05:31;21.80;58.30
18177;DHT22;9213;50.858;3.964;2023-08-20T05:07:58;21.80;59.00
18177;DHT22;9213;50.858;3.964;2023-08-20T05:10:25;21.80;58.20
18177;DHT22;9213;50.858;3.964;2023-08-20T05:12:53;21.80;58.30
18177;DHT22;9213;50.858;3.964;2023-08-20T05:15:20;21.80;58.40
18177;DHT22;9213;50.858;3.964;2023-08-20T05:17:48;21.90;58.40
18177;DHT22;9213;50.858;3.964;2023-08-20T05:20:15;21.90;58.40
18177;DHT22;9213;50.858;3.964;2023-08-20T05:22:42;21.90;58.50
18177;DHT22;9213;50.858;3.964;2023-08-20T05:25:09;21.90;58.50
18177;DHT22;9213;50.858;3.964;2023-08-20T05:27:35;21.90;58.40
18177;DHT22;9213;50.858;3.964;2023-08-20T05:30:05;21.90;58.40
18177;DHT22;9213;50.858;3.964;2023-08-20T05:32:34;21.90;58.40
18177;DHT22;9213;50.858;3.964;2023-08-20T05:35:01;21.90;58.30
18177;DHT22;9213;50.858;3.964;2023-08-20T05:37:29;21.90;58.20
18177;DHT22;9213;50.858;3.964;2023-08-20T05:39:56;21.90;58.30
18177;DHT22;9213;50.858;3.964;2023-08-20T05:42:23;22.00;58.20
18177;DHT22;9213;50.858;3.964;2023-08-20T05:44:50;22.00;58.30
18177;DHT22;9213;50.858;3.964;2023-08-20T05:47:18;22.00;58.20
18177;DHT22;9213;50.858;3.964;2023-08-20T05:49:45;22.00;58.30
18177;DHT22;9213;50.858;3.964;2023-08-20T05:52:12;22.00;58.30
18177;DHT22;9213;50.858;3.964;2023-08-20T05:54:39;22.10;58.30
18177;DHT22;9213;50.858;3.964;2023-08-20T05:57:06;22.10;58.30
18177;DHT22;9213;50.858;3.964;2023-08-20T05:59:32;22.10;58.30
18177;DHT22;9213;50.858;3.964;2023-08-20T06:02:01;22.20;58.30
18177;DHT22;9213;50.858;3.964;2023-08-20T06:04:29;22.20;58.50
18177;DHT22;9213;50.858;3.964;2023-08-20T06:06:56;22.30;58.70
18177;DHT22;9213;50.858;3.964;2023-08-20T06:09:23;22.30;58.80
18177;DHT22;9213;50.858;3.964;2023-08-20T06:11:50;22.40;59.00
18177;DHT22;9213;50.858;3.964;2023-08-20T06:14:17;22.40;59.00
18177;DHT22;9213;50.858;3.964;2023-08-20T06:16:44;22.50;58.90
18177;DHT22;9213;50.858;3.964;2023-08-20T06:19:11;22.60;58.70
18177;DHT22;9213;50.858;3.964;2023-08-20T06:21:39;22.70;58.70
18177;DHT22;9213;50.858;3.964;2023-08-20T06:24:06;22.80;58.60
18177;DHT22;9213;50.858;3.964;2023-08-20T06:26:34;22.90;58.30
18177;DHT22;9213;50.858;3.964;2023-08-20T06:29:01;23.00;58.10
18177;DHT22;9213;50.858;3.964;2023-08-20T06:31:28;23.10;58.10
18177;DHT22;9213;50.858;3.964;2023-08-20T06:33:55;23.20;58.00
18177;DHT22;9213;50.858;3.964;2023-08-20T06:36:22;23.30;57.90
18177;DHT22;9213;50.858;3.964;2023-08-20T06:38:50;23.40;57.70
18177;DHT22;9213;50.858;3.964;2023-08-20T06:41:17;23.50;57.70
18177;DHT22;9213;50.858;3.964;2023-08-20T06:43:44;23.60;57.40
18177;DHT22;9213;50.858;3.964;2023-08-20T06:46:11;23.60;57.30
18177;DHT22;9213;50.858;3.964;2023-08-20T06:48:38;23.60;57.20
18177;DHT22;9213;50.858;3.964;2023-08-20T06:51:10;23.70;57.20
18177;DHT22;9213;50.858;3.964;2023-08-20T06:53:37;23.80;57.30
18177;DHT22;9213;50.858;3.964;2023-08-20T06:56:07;23.80;57.10
18177;DHT22;9213;50.858;3.964;2023-08-20T06:58:35;23.80;57.10
18177;DHT22;9213;50.858;3.964;2023-08-20T07:01:01;23.90;56.30
18177;DHT22;9213;50.858;3.964;2023-08-20T07:03:34;24.00;55.80
18177;DHT22;9213;50.858;3.964;2023-08-20T07:06:01;24.20;55.10
18177;DHT22;9213;50.858;3.964;2023-08-20T07:08:28;24.70;54.90
18177;DHT22;9213;50.858;3.964;2023-08-20T07:10:55;25.70;52.70
18177;DHT22;9213;50.858;3.964;2023-08-20T07:13:23;27.10;49.20
18177;DHT22;9213;50.858;3.964;2023-08-20T07:15:51;28.90;44.30
18177;DHT22;9213;50.858;3.964;2023-08-20T07:18:18;30.70;39.90
18177;DHT22;9213;50.858;3.964;2023-08-20T07:20:45;32.40;37.30
18177;DHT22;9213;50.858;3.964;2023-08-20T07:23:12;33.80;33.20
18177;DHT22;9213;50.858;3.964;2023-08-20T07:25:40;35.00;31.10
18177;DHT22;9213;50.858;3.964;2023-08-20T07:28:08;36.00;28.60
18177;DHT22;9213;50.858;3.964;2023-08-20T07:30:36;36.60;26.20
18177;DHT22;9213;50.858;3.964;2023-08-20T07:33:05;37.00;25.50
18177;DHT22;9213;50.858;3.964;2023-08-20T07:35:32;37.30;24.40
18177;DHT22;9213;50.858;3.964;2023-08-20T07:38:01;37.70;24.10
18177;DHT22;9213;50.858;3.964;2023-08-20T07:40:28;38.10;23.30
18177;DHT22;9213;50.858;3.964;2023-08-20T07:42:54;38.40;22.80
18177;DHT22;9213;50.858;3.964;2023-08-20T07:45:22;38.70;22.20
18177;DHT22;9213;50.858;3.964;2023-08-20T07:47:50;39.00;21.60
18177;DHT22;9213;50.858;3.964;2023-08-20T07:50:20;39.10;21.10
18177;DHT22;9213;50.858;3.964;2023-08-20T07:52:47;39.30;20.90
18177;DHT22;9213;50.858;3.964;2023-08-20T07:55:14;39.40;20.60
18177;DHT22;9213;50.858;3.964;2023-08-20T07:57:41;39.60;21.00
18177;DHT22;9213;50.858;3.964;2023-08-20T08:00:09;39.70;19.80
18177;DHT22;9213;50.858;3.964;2023-08-20T08:02:36;39.80;19.50
18177;DHT22;9213;50.858;3.964;2023-08-20T08:05:05;40.10;20.00
18177;DHT22;9213;50.858;3.964;2023-08-20T08:07:32;40.50;19.50
18177;DHT22;9213;50.858;3.964;2023-08-20T08:09:59;40.80;18.80
18177;DHT22;9213;50.858;3.964;2023-08-20T08:12:26;41.00;19.00
18177;DHT22;9213;50.858;3.964;2023-08-20T08:14:53;41.20;18.80
18177;DHT22;9213;50.858;3.964;2023-08-20T08:17:20;41.50;18.10
18177;DHT22;9213;50.858;3.964;2023-08-20T08:19:47;41.70;18.10
18177;DHT22;9213;50.858;3.964;2023-08-20T08:22:15;41.90;17.60
18177;DHT22;9213;50.858;3.964;2023-08-20T08:24:42;42.00;17.80
18177;DHT22;9213;50.858;3.964;2023-08-20T08:27:09;42.10;18.10
18177;DHT22;9213;50.858;3.964;2023-08-20T08:29:36;42.10;17.50
18177;DHT22;9213;50.858;3.964;2023-08-20T08:32:03;42.20;17.10
18177;DHT22;9213;50.858;3.964;2023-08-20T08:34:30;42.30;16.60
18177;DHT22;9213;50.858;3.964;2023-08-20T08:36:57;42.30;16.60
18177;DHT22;9213;50.858;3.964;2023-08-20T08:39:25;42.30;16.70
18177;DHT22;9213;50.858;3.964;2023-08-20T08:41:57;42.30;17.20
18177;DHT22;9213;50.858;3.964;2023-08-20T08:44:28;42.20;16.90
18177;DHT22;9213;50.858;3.964;2023-08-20T08:46:55;42.00;17.00
18177;DHT22;9213;50.858;3.964;2023-08-20T08:49:22;41.90;16.80
18177;DHT22;9213;50.858;3.964;2023-08-20T08:51:49;41.80;17.20
18177;DHT22;9213;50.858;3.964;2023-08-20T08:54:17;41.80;17.00
18177;DHT22;9213;50.858;3.964;2023-08-20T08:56:46;41.70;16.70
18177;DHT22;9213;50.858;3.964;2023-08-20T08:59:13;41.70;16.60
18177;DHT22;9213;50.858;3.964;2023-08-20T09:01:41;41.50;17.10
18177;DHT22;9213;50.858;3.964;2023-08-20T09:04:08;41.40;18.00
18177;DHT22;9213;50.858;3.964;2023-08-20T09:06:45;41.30;17.40
18177;DHT22;9213;50.858;3.964;2023-08-20T09:09:12;41.30;18.20
18177;DHT22;9213;50.858;3.964;2023-08-20T09:11:39;41.10;17.70
18177;DHT22;9213;50.858;3.964;2023-08-20T09:14:08;41.10;17.70
18177;DHT22;9213;50.858;3.964;2023-08-20T09:16:35;40.90;18.30
18177;DHT22;9213;50.858;3.964;2023-08-20T09:19:03;40.70;17.90
18177;DHT22;9213;50.858;3.964;2023-08-20T09:21:30;40.70;18.10
18177;DHT22;9213;50.858;3.964;2023-08-20T09:23:57;40.60;17.70
18177;DHT22;9213;50.858;3.964;2023-08-20T09:26:24;40.50;17.80
18177;DHT22;9213;50.858;3.964;2023-08-20T09:28:55;40.50;18.90
18177;DHT22;9213;50.858;3.964;2023-08-20T09:31:37;40.40;18.70
18177;DHT22;9213;50.858;3.964;2023-08-20T09:34:04;40.30;18.70
18177;DHT22;9213;50.858;3.964;2023-08-20T09:36:32;40.00;18.50
18177;DHT22;9213;50.858;3.964;2023-08-20T09:38:59;39.80;17.90
18177;DHT22;9213;50.858;3.964;2023-08-20T09:41:26;39.60;18.10
18177;DHT22;9213;50.858;3.964;2023-08-20T09:43:56;39.30;18.10
18177;DHT22;9213;50.858;3.964;2023-08-20T09:46:25;39.00;18.80
18177;DHT22;9213;50.858;3.964;2023-08-20T09:48:56;38.70;18.50
18177;DHT22;9213;50.858;3.964;2023-08-20T09:51:25;38.50;19.60
18177;DHT22;9213;50.858;3.964;2023-08-20T09:54:00;38.40;19.70
18177;DHT22;9213;50.858;3.964;2023-08-20T09:56:30;38.20;19.70
18177;DHT22;9213;50.858;3.964;2023-08-20T09:58:57;38.00;21.60
18177;DHT22;9213;50.858;3.964;2023-08-20T10:01:27;37.80;20.10
18177;DHT22;9213;50.858;3.964;2023-08-20T10:03:54;37.70;20.90
18177;DHT22;9213;50.858;3.964;2023-08-20T10:06:22;37.70;20.50
18177;DHT22;9213;50.858;3.964;2023-08-20T10:08:50;37.60;20.50
18177;DHT22;9213;50.858;3.964;2023-08-20T10:11:17;37.70;19.30
18177;DHT22;9213;50.858;3.964;2023-08-20T10:13:44;37.70;20.30
18177;DHT22;9213;50.858;3.964;2023-08-20T10:16:12;37.80;19.70
18177;DHT22;9213;50.858;3.964;2023-08-20T10:18:40;38.00;20.60
18177;DHT22;9213;50.858;3.964;2023-08-20T10:21:08;38.10;20.20
18177;DHT22;9213;50.858;3.964;2023-08-20T10:23:38;38.30;19.90
18177;DHT22;9213;50.858;3.964;2023-08-20T10:26:07;38.40;19.30
18177;DHT22;9213;50.858;3.964;2023-08-20T10:28:34;38.50;19.50
18177;DHT22;9213;50.858;3.964;2023-08-20T10:31:06;38.50;19.70
18177;DHT22;9213;50.858;3.964;2023-08-20T10:33:34;38.50;18.60
18177;DHT22;9213;50.858;3.964;2023-08-20T10:36:13;38.40;18.60
18177;DHT22;9213;50.858;3.964;2023-08-20T10:38:40;38.50;18.60
18177;DHT22;9213;50.858;3.964;2023-08-20T10:41:07;38.40;19.20
18177;DHT22;9213;50.858;3.964;2023-08-20T10:43:36;38.50;19.90
18177;DHT22;9213;50.858;3.964;2023-08-20T10:46:14;38.60;20.00
18177;DHT22;9213;50.858;3.964;2023-08-20T10:48:41;38.70;19.00
18177;DHT22;9213;50.858;3.964;2023-08-20T10:51:11;38.80;19.20
18177;DHT22;9213;50.858;3.964;2023-08-20T10:53:40;38.90;18.40
18177;DHT22;9213;50.858;3.964;2023-08-20T10:56:12;38.90;18.70
18177;DHT22;9213;50.858;3.964;2023-08-20T10:58:45;39.10;18.70
18177;DHT22;9213;50.858;3.964;2023-08-20T11:01:17;39.20;19.40
18177;DHT22;9213;50.858;3.964;2023-08-20T11:03:45;39.20;18.80
18177;DHT22;9213;50.858;3.964;2023-08-20T11:06:15;39.00;18.30
18177;DHT22;9213;50.858;3.964;2023-08-20T11:08:43;39.00;19.20
18177;DHT22;9213;50.858;3.964;2023-08-20T11:11:10;38.90;18.60
18177;DHT22;9213;50.858;3.964;2023-08-20T11:13:38;39.00;19.90
18177;DHT22;9213;50.858;3.964;2023-08-20T11:16:06;39.00;19.30
18177;DHT22;9213;50.858;3.964;2023-08-20T11:18:34;39.00;19.00
18177;DHT22;9213;50.858;3.964;2023-08-20T11:21:01;39.00;19.80
18177;DHT22;9213;50.858;3.964;2023-08-20T11:23:31;39.00;19.70
18177;DHT22;9213;50.858;3.964;2023-08-20T11:25:58;39.10;19.00
18177;DHT22;9213;50.858;3.964;2023-08-20T11:28:26;39.10;18.90
18177;DHT22;9213;50.858;3.964;2023-08-20T11:30:54;39.20;18.80
18177;DHT22;9213;50.858;3.964;2023-08-20T11:33:21;39.30;19.00
18177;DHT22;9213;50.858;3.964;2023-08-20T11:35:49;39.40;18.50
18177;DHT22;9213;50.858;3.964;2023-08-20T11:38:16;39.40;18.50
18177;DHT22;9213;50.858;3.964;2023-08-20T11:40:44;39.40;18.70
18177;DHT22;9213;50.858;3.964;2023-08-20T11:43:11;39.50;19.70
18177;DHT22;9213;50.858;3.964;2023-08-20T11:45:46;39.50;19.50
18177;DHT22;9213;50.858;3.964;2023-08-20T11:48:14;39.50;18.70
18177;DHT22;9213;50.858;3.964;2023-08-20T11:50:41;39.50;19.40
18177;DHT22;9213;50.858;3.964;2023-08-20T11:53:08;39.60;18.90
18177;DHT22;9213;50.858;3.964;2023-08-20T11:55:35;39.60;19.10
18177;DHT22;9213;50.858;3.964;2023-08-20T11:58:04;39.70;18.90
18177;DHT22;9213;50.858;3.964;2023-08-20T12:00:31;39.80;18.70
18177;DHT22;9213;50.858;3.964;2023-08-20T12:02:58;39.90;19.10
18177;DHT22;9213;50.858;3.964;2023-08-20T12:05:29;40.00;19.10
18177;DHT22;9213;50.858;3.964;2023-08-20T12:07:56;40.20;19.30
18177;DHT22;9213;50.858;3.964;2023-08-20T12:10:25;40.30;18.90
18177;DHT22;9213;50.858;3.964;2023-08-20T12:12:52;40.40;19.10
18177;DHT22;9213;50.858;3.964;2023-08-20T12:15:22;40.30;19.50
18177;DHT22;9213;50.858;3.964;2023-08-20T12:17:59;40.30;19.60
18177;DHT22;9213;50.858;3.964;2023-08-20T12:20:28;40.40;19.40
18177;DHT22;9213;50.858;3.964;2023-08-20T12:22:58;40.40;18.90
18177;DHT22;9213;50.858;3.964;2023-08-20T12:25:26;40.50;19.00
18177;DHT22;9213;50.858;3.964;2023-08-20T12:27:53;40.50;18.70
18177;DHT22;9213;50.858;3.964;2023-08-20T12:30:21;40.60;18.80
18177;DHT22;9213;50.858;3.964;2023-08-20T12:32:48;40.60;19.00
18177;DHT22;9213;50.858;3.964;2023-08-20T12:35:15;40.60;18.60
18177;DHT22;9213;50.858;3.964;2023-08-20T12:37:42;40.60;19.00
18177;DHT22;9213;50.858;3.964;2023-08-20T12:40:10;40.60;18.90
18177;DHT22;9213;50.858;3.964;2023-08-20T12:42:38;40.60;18.80
18177;DHT22;9213;50.858;3.964;2023-08-20T12:45:06;40.60;18.10
18177;DHT22;9213;50.858;3.964;2023-08-20T12:47:34;40.60;18.20
18177;DHT22;9213;50.858;3.964;2023-08-20T12:50:01;40.60;18.10
18177;DHT22;9213;50.858;3.964;2023-08-20T12:52:30;40.60;18.50
18177;DHT22;9213;50.858;3.964;2023-08-20T12:54:57;40.60;19.10
18177;DHT22;9213;50.858;3.964;2023-08-20T12:57:24;40.60;18.30
18177;DHT22;9213;50.858;3.964;2023-08-20T12:59:50;40.60;18.60
18177;DHT22;9213;50.858;3.964;2023-08-20T13:02:18;40.70;18.20
18177;DHT22;9213;50.858;3.964;2023-08-20T13:04:48;40.70;19.00
18177;DHT22;9213;50.858;3.964;2023-08-20T13:07:16;40.90;17.80
18177;DHT22;9213;50.858;3.964;2023-08-20T13:09:43;41.00;18.00
18177;DHT22;9213;50.858;3.964;2023-08-20T13:12:11;41.00;18.00
18177;DHT22;9213;50.858;3.964;2023-08-20T13:14:39;41.10;18.10
18177;DHT22;9213;50.858;3.964;2023-08-20T13:17:08;41.30;19.10
18177;DHT22;9213;50.858;3.964;2023-08-20T13:19:35;41.50;18.20
18177;DHT22;9213;50.858;3.964;2023-08-20T13:22:04;41.70;18.50
18177;DHT22;9213;50.858;3.964;2023-08-20T13:24:31;42.00;18.40
18177;DHT22;9213;50.858;3.964;2023-08-20T13:26:58;42.20;18.50
18177;DHT22;9213;50.858;3.964;2023-08-20T13:29:25;42.50;18.00
18177;DHT22;9213;50.858;3.964;2023-08-20T13:31:52;42.60;18.00
18177;DHT22;9213;50.858;3.964;2023-08-20T13:34:19;42.60;17.20
18177;DHT22;9213;50.858;3.964;2023-08-20T13:36:46;42.70;17.70
18177;DHT22;9213;50.858;3.964;2023-08-20T13:39:15;42.70;17.40
18177;DHT22;9213;50.858;3.964;2023-08-20T13:41:43;42.70;17.30
18177;DHT22;9213;50.858;3.964;2023-08-20T13:44:10;42.70;17.90
18177;DHT22;9213;50.858;3.964;2023-08-20T13:46:37;42.70;17.70
18177;DHT22;9213;50.858;3.964;2023-08-20T13:49:04;42.60;17.80
18177;DHT22;9213;50.858;3.964;2023-08-20T13:51:31;42.60;17.50
18177;DHT22;9213;50.858;3.964;2023-08-20T13:53:58;42.60;16.90
18177;DHT22;9213;50.858;3.964;2023-08-20T13:56:27;42.40;17.70
18177;DHT22;9213;50.858;3.964;2023-08-20T13:58:54;42.40;17.00
18177;DHT22;9213;50.858;3.964;2023-08-20T14:01:21;42.30;17.80
18177;DHT22;9213;50.858;3.964;2023-08-20T14:03:48;42.20;17.40
18177;DHT22;9213;50.858;3.964;2023-08-20T14:06:16;42.20;17.30
18177;DHT22;9213;50.858;3.964;2023-08-20T14:08:43;42.10;17.90
18177;DHT22;9213;50.858;3.964;2023-08-20T14:11:10;42.00;18.20
18177;DHT22;9213;50.858;3.964;2023-08-20T14:13:38;41.90;18.10
18177;DHT22;9213;50.858;3.964;2023-08-20T14:16:05;41.90;18.60
18177;DHT22;9213;50.858;3.964;2023-08-20T14:18:32;41.90;19.40
18177;DHT22;9213;50.858;3.964;2023-08-20T14:20:59;41.80;18.80
18177;DHT22;9213;50.858;3.964;2023-08-20T14:23:26;41.70;18.80
18177;DHT22;9213;50.858;3.964;2023-08-20T14:25:53;41.60;18.90
18177;DHT22;9213;50.858;3.964;2023-08-20T14:28:21;41.50;19.20
18177;DHT22;9213;50.858;3.964;2023-08-20T14:30:50;41.40;19.00
18177;DHT22;9213;50.858;3.964;2023-08-20T14:33:19;41.20;19.00
18177;DHT22;9213;50.858;3.964;2023-08-20T14:35:46;41.00;20.00
18177;DHT22;9213;50.858;3.964;2023-08-20T14:38:13;40.80;19.70
18177;DHT22;9213;50.858;3.964;2023-08-20T14:40:40;40.70;20.30
18177;DHT22;9213;50.858;3.964;2023-08-20T14:43:07;40.50;19.90
18177;DHT22;9213;50.858;3.964;2023-08-20T14:45:34;40.30;19.90
18177;DHT22;9213;50.858;3.964;2023-08-20T14:48:03;40.00;20.80
18177;DHT22;9213;50.858;3.964;2023-08-20T14:50:30;39.80;20.70
18177;DHT22;9213;50.858;3.964;2023-08-20T14:52:57;39.60;21.50
18177;DHT22;9213;50.858;3.964;2023-08-20T14:55:24;39.50;20.50
18177;DHT22;9213;50.858;3.964;2023-08-20T14:57:51;39.30;21.20
18177;DHT22;9213;50.858;3.964;2023-08-20T15:00:18;39.20;22.20
18177;DHT22;9213;50.858;3.964;2023-08-20T15:02:47;39.00;22.10
18177;DHT22;9213;50.858;3.964;2023-08-20T15:05:16;38.90;21.80
18177;DHT22;9213;50.858;3.964;2023-08-20T15:07:43;38.70;21.30
18177;DHT22;9213;50.858;3.964;2023-08-20T15:10:10;38.60;21.70
18177;DHT22;9213;50.858;3.964;2023-08-20T15:12:37;38.60;22.10
18177;DHT22;9213;50.858;3.964;2023-08-20T15:15:05;38.50;21.60
18177;DHT22;9213;50.858;3.964;2023-08-20T15:17:34;38.40;21.90
18177;DHT22;9213;50.858;3.964;2023-08-20T15:20:01;38.40;22.10
18177;DHT22;9213;50.858;3.964;2023-08-20T15:22:31;38.30;22.10
18177;DHT22;9213;50.858;3.964;2023-08-20T15:24:58;38.20;22.20
18177;DHT22;9213;50.858;3.964;2023-08-20T15:27:25;38.10;22.00
18177;DHT22;9213;50.858;3.964;2023-08-20T15:29:52;38.00;23.10
18177;DHT22;9213;50.858;3.964;2023-08-20T15:32:19;37.90;23.10
18177;DHT22;9213;50.858;3.964;2023-08-20T15:34:47;37.80;22.80
18177;DHT22;9213;50.858;3.964;2023-08-20T15:37:14;37.80;23.20
18177;DHT22;9213;50.858;3.964;2023-08-20T15:39:43;37.60;23.30
18177;DHT22;9213;50.858;3.964;2023-08-20T15:42:10;37.50;24.20
18177;DHT22;9213;50.858;3.964;2023-08-20T15:44:38;37.40;24.20
18177;DHT22;9213;50.858;3.964;2023-08-20T15:47:05;37.30;24.40
18177;DHT22;9213;50.858;3.964;2023-08-20T15:49:32;37.10;25.30
18177;DHT22;9213;50.858;3.964;2023-08-20T15:51:59;37.00;26.00